Strona główna
METAR-TAF:

METAR-TAF

Lotnisko :

Doylestown Airport

Doylestown, Pensylwania, Stany Zjednoczone

Szerokość geograficzna: 40-19-48N, Długość geograficzna: 075-07-21W, wysokość: 120 m

Aktualna obserwacja pogody

Raport powstał 36 minut temu, godzina 08:20 UTC
Wiatr 6 kt od zachód
Temperatura 2°C
Wilgotność 93%
Ciśnienie 1006 hPa
Widzialność: 16.1 km
Zachmurzenie całkowite na wysokości 500 ft
słaby deszcz

METAR: KDYL 190820Z AUTO 27006KT 10SM -RA OVC005 02/01 A2970 RMK AO2 RAB0756E0757B05UPB0757E16 P0002 T00220006

czas: 03:56 (08:56 UTC)


TAF: brakujący

Obserwacja i prognoza pogody dla ponad 4000 lotnisk (raport METAR i TAF).

Dostępne stacje oznaczono żółtymi i czerwonymi punktami na mapie.

Najedź kursorem aby zobaczyć nazwę stacji.

Kliknij aby zobaczyć obserwacje i prognozy pogody.

Aby zmienić mapę: kliknij na zielony przycisk z czarnym krzyżykiem, aby powiększyć; na zielony przycisk z myślnikiem, aby pomniejszyć; na zielone strzałki, aby przejść do map sąsiednich.


METAR-TAF: